Time;durP1;ratioP1;P1;durP2;ratioP2;P2;SDS_P1;SDS_P2;PMS_P1;PMS_P2;Temp;Humidity;BMP_temperature;BMP_pressure;BME280_temperature;BME280_humidity;BME280_pressure;Samples;Min_cycle;Max_cycle;Signal;HPM_P1;HPM_P2
2021/12/25 00:01:20;;;;;;;3.30;2.80;;;16.70;50.00;;;;;;5055764;28;20017;-63
2021/12/25 00:03:46;;;;;;;4.10;3.20;;;16.70;50.00;;;;;;5055855;28;20502;-63
2021/12/25 00:06:12;;;;;;;3.60;2.88;;;16.70;50.00;;;;;;5056137;28;20013;-63
2021/12/25 00:08:37;;;;;;;3.10;2.63;;;16.70;50.00;;;;;;5037964;28;20438;-63
2021/12/25 00:11:05;;;;;;;4.38;3.38;;;16.70;50.00;;;;;;5055920;28;20009;-63
2021/12/25 00:13:31;;;;;;;3.88;2.95;;;16.70;50.00;;;;;;5055808;28;20032;-63
2021/12/25 00:15:57;;;;;;;3.45;2.78;;;16.70;50.10;;;;;;5055659;28;20029;-63
2021/12/25 00:18:23;;;;;;;3.40;3.10;;;16.60;50.00;;;;;;5055424;28;20028;-63
2021/12/25 00:20:48;;;;;;;4.53;2.97;;;16.60;50.00;;;;;;5055285;28;20052;-63
2021/12/25 00:23:14;;;;;;;5.15;3.22;;;16.60;50.00;;;;;;5055651;28;20430;-63
2021/12/25 00:25:48;;;;;;;3.50;2.97;;;16.60;50.00;;;;;;5055288;28;20494;-63
2021/12/25 00:33:48;;;;;;;4.00;3.20;;;16.60;50.00;;;;;;5054910;28;20032;-64
2021/12/25 00:36:16;;;;;;;4.93;3.33;;;16.60;50.00;;;;;;5041156;28;20041;-64
2021/12/25 00:38:42;;;;;;;4.65;3.33;;;16.60;50.00;;;;;;5055206;28;20736;-64
2021/12/25 00:41:08;;;;;;;3.85;3.40;;;16.60;50.00;;;;;;5055088;28;20032;-64
2021/12/25 00:43:34;;;;;;;3.85;3.15;;;16.60;50.00;;;;;;5054626;28;20023;-62
2021/12/25 00:46:01;;;;;;;3.58;3.10;;;16.60;50.10;;;;;;5054782;28;20039;-62
2021/12/25 00:48:27;;;;;;;3.83;3.30;;;16.60;50.00;;;;;;5054363;28;20534;-62
2021/12/25 00:50:54;;;;;;;3.45;3.08;;;16.60;50.10;;;;;;5054618;28;20016;-62
2021/12/25 00:53:20;;;;;;;3.28;2.97;;;16.60;50.10;;;;;;5054330;28;20021;-64
2021/12/25 00:55:46;;;;;;;4.60;3.40;;;16.60;50.10;;;;;;5054287;28;20451;-64
2021/12/25 00:58:12;;;;;;;4.63;3.65;;;16.60;50.10;;;;;;5054411;28;20075;-63
2021/12/25 01:00:39;;;;;;;4.95;3.55;;;16.60;50.10;;;;;;5055071;28;20023;-64
2021/12/25 01:03:05;;;;;;;3.85;3.30;;;16.60;50.10;;;;;;5054987;28;20016;-63
2021/12/25 01:05:31;;;;;;;3.90;2.95;;;16.60;50.10;;;;;;5054215;28;20476;-63
2021/12/25 01:07:57;;;;;;;3.67;3.33;;;16.60;50.10;;;;;;5054226;28;20140;-63
2021/12/25 01:10:23;;;;;;;3.60;3.28;;;16.60;50.10;;;;;;5054355;28;20104;-63
2021/12/25 01:13:08;;;;;;;4.00;3.22;;;16.60;50.10;;;;;;5054302;28;20488;-63
2021/12/25 01:16:22;;;;;;;4.05;3.42;;;16.60;50.10;;;;;;5054661;28;20037;-63
2021/12/25 01:24:35;;;;;;;3.65;3.30;;;16.60;50.10;;;;;;5053785;28;20108;-64
2021/12/25 01:27:04;;;;;;;3.28;2.97;;;16.60;50.10;;;;;;5053168;28;20086;-63
2021/12/25 01:37:46;;;;;;;4.30;3.90;;;16.50;50.10;;;;;;5053766;28;20049;-63
2021/12/25 01:48:03;;;;;;;5.43;3.80;;;16.50;50.20;;;;;;5053589;28;20063;-64
2021/12/25 01:50:29;;;;;;;4.18;3.75;;;16.50;50.20;;;;;;5053178;28;20464;-63
2021/12/25 01:52:56;;;;;;;4.22;3.60;;;16.60;50.20;;;;;;5053277;28;20045;-63
2021/12/25 01:55:24;;;;;;;4.43;4.00;;;16.50;50.20;;;;;;5053387;28;20017;-64
2021/12/25 01:57:50;;;;;;;4.45;3.92;;;16.50;50.20;;;;;;5035609;28;20021;-63
2021/12/25 02:00:16;;;;;;;4.40;3.45;;;16.50;50.20;;;;;;5053320;28;20028;-63
2021/12/25 02:02:45;;;;;;;3.95;3.47;;;16.50;50.20;;;;;;5053561;28;20083;-64
2021/12/25 02:05:11;;;;;;;4.22;3.60;;;16.50;50.20;;;;;;5053788;28;20013;-63
2021/12/25 02:07:37;;;;;;;4.68;3.78;;;16.50;50.20;;;;;;5053907;28;20486;-64
2021/12/25 02:10:05;;;;;;;5.38;3.90;;;16.50;50.20;;;;;;5053502;28;20033;-63
2021/12/25 02:12:33;;;;;;;4.38;3.70;;;16.50;50.20;;;;;;5053252;28;20031;-63
2021/12/25 02:15:08;;;;;;;4.78;3.72;;;16.50;50.20;;;;;;5053109;28;20021;-63
2021/12/25 02:20:19;;;;;;;4.10;3.63;;;16.50;50.20;;;;;;5053295;28;20494;-64
2021/12/25 02:22:46;;;;;;;4.10;3.67;;;16.50;50.20;;;;;;5053455;28;20020;-64
2021/12/25 02:25:12;;;;;;;4.32;3.83;;;16.50;50.30;;;;;;5053056;28;20107;-63
2021/12/25 02:27:37;;;;;;;4.35;3.95;;;16.50;50.30;;;;;;5053754;28;20061;-64
2021/12/25 02:30:05;;;;;;;4.45;4.05;;;16.50;50.80;;;;;;5036225;28;20392;-64
2021/12/25 02:32:33;;;;;;;4.25;3.67;;;16.50;50.30;;;;;;5054245;28;20021;-64
2021/12/25 02:34:59;;;;;;;4.60;3.88;;;16.50;50.30;;;;;;5054050;28;20013;-64
2021/12/25 02:37:25;;;;;;;3.75;3.35;;;16.50;50.30;;;;;;5053448;28;20053;-63
2021/12/25 02:39:51;;;;;;;4.30;3.38;;;16.40;50.20;;;;;;5053711;28;20427;-64
2021/12/25 02:42:17;;;;;;;4.30;3.88;;;16.50;50.30;;;;;;5035505;28;20055;-64
2021/12/25 02:44:44;;;;;;;4.47;3.72;;;16.50;50.30;;;;;;5053685;28;20074;-63
2021/12/25 02:47:16;;;;;;;8.85;4.10;;;16.50;50.30;;;;;;5035320;28;20017;-64
2021/12/25 02:49:55;;;;;;;5.97;3.70;;;16.50;50.30;;;;;;5053100;28;20040;-65
2021/12/25 02:52:21;;;;;;;4.93;3.90;;;16.40;50.30;;;;;;5053191;28;20021;-64
2021/12/25 02:54:47;;;;;;;4.65;4.00;;;16.50;50.30;;;;;;5053137;28;20040;-64
2021/12/25 02:57:14;;;;;;;4.03;3.63;;;16.40;50.20;;;;;;5052818;28;20025;-64
2021/12/25 02:59:40;;;;;;;4.50;4.10;;;16.40;50.20;;;;;;5053280;28;20017;-64
2021/12/25 03:02:11;;;;;;;4.65;4.22;;;16.50;50.30;;;;;;5053025;28;20075;-63
2021/12/25 03:04:42;;;;;;;4.32;3.92;;;16.50;50.30;;;;;;5053252;28;20095;-63
2021/12/25 03:07:08;;;;;;;4.85;4.30;;;16.40;50.30;;;;;;5053225;28;20476;-63
2021/12/25 03:09:34;;;;;;;4.30;3.90;;;16.40;50.30;;;;;;5034990;28;20056;-64
2021/12/25 03:12:02;;;;;;;4.03;3.63;;;16.40;50.30;;;;;;5054062;28;20064;-64
2021/12/25 03:14:37;;;;;;;4.00;3.60;;;16.40;50.30;;;;;;5039525;28;20027;-64
2021/12/25 03:17:03;;;;;;;4.63;3.97;;;16.40;50.30;;;;;;5040161;28;20012;-63
2021/12/25 03:19:33;;;;;;;6.18;3.92;;;16.40;50.30;;;;;;5056590;28;20029;-63
2021/12/25 03:21:59;;;;;;;3.97;3.33;;;16.40;50.30;;;;;;5056785;28;20028;-64
2021/12/25 03:24:26;;;;;;;4.05;3.65;;;16.40;50.30;;;;;;5056935;28;20101;-64
2021/12/25 03:26:55;;;;;;;5.15;4.10;;;16.40;50.30;;;;;;5056797;28;20021;-64
2021/12/25 03:29:21;;;;;;;4.47;3.85;;;16.40;50.40;;;;;;5056755;28;20043;-63
2021/12/25 03:31:47;;;;;;;4.40;3.83;;;16.40;50.30;;;;;;5038828;28;20009;-65
2021/12/25 03:34:15;;;;;;;3.63;3.33;;;16.40;50.40;;;;;;5056951;28;20086;-64
2021/12/25 03:36:41;;;;;;;4.70;3.72;;;16.40;50.40;;;;;;5056167;28;20392;-65
2021/12/25 03:39:07;;;;;;;4.35;3.88;;;16.40;50.40;;;;;;5056322;28;20024;-64
2021/12/25 03:41:33;;;;;;;5.10;3.78;;;16.40;50.40;;;;;;5056092;28;20047;-63
2021/12/25 03:44:01;;;;;;;4.35;3.95;;;16.40;50.40;;;;;;5056511;28;20107;-64
2021/12/25 03:46:31;;;;;;;3.83;3.50;;;16.40;50.40;;;;;;5056404;28;20021;-64
2021/12/25 03:49:08;;;;;;;4.55;4.00;;;16.40;50.40;;;;;;5056469;28;20029;-63
2021/12/25 03:59:58;;;;;;;4.00;3.60;;;16.30;50.40;;;;;;5056565;28;20075;-63
2021/12/25 04:02:31;;;;;;;3.78;3.38;;;16.40;50.50;;;;;;5055302;28;20486;-63
2021/12/25 04:05:00;;;;;;;4.65;3.50;;;16.40;50.50;;;;;;5055502;28;20013;-64
2021/12/25 04:10:02;;;;;;;4.65;3.85;;;16.40;50.50;;;;;;5055206;28;20047;-63
2021/12/25 04:12:28;;;;;;;6.53;3.80;;;16.40;50.50;;;;;;5055716;28;20025;-63
2021/12/25 04:14:54;;;;;;;4.90;3.47;;;16.40;50.50;;;;;;5055108;28;20602;-63
2021/12/25 04:17:20;;;;;;;4.38;3.70;;;16.30;50.50;;;;;;5055020;28;20507;-63
2021/12/25 04:19:46;;;;;;;4.10;3.70;;;16.30;50.40;;;;;;5055048;28;20021;-64
2021/12/25 04:22:21;;;;;;;4.03;3.63;;;16.30;50.50;;;;;;5055217;28;20021;-63
2021/12/25 04:24:49;;;;;;;4.22;3.45;;;16.40;50.50;;;;;;5054599;28;20017;-64
2021/12/25 04:27:16;;;;;;;4.00;3.45;;;16.40;50.50;;;;;;5054918;28;20493;-63
2021/12/25 05:02:18;;;;;;;3.72;3.40;;;16.30;50.60;;;;;;5054692;28;20109;-63
2021/12/25 05:04:52;;;;;;;4.00;3.63;;;16.30;50.70;;;;;;5054424;28;20021;-63
2021/12/25 05:07:18;;;;;;;3.47;2.92;;;16.30;50.60;;;;;;5054785;28;20013;-64
2021/12/25 05:09:45;;;;;;;3.20;2.90;;;16.20;50.60;;;;;;5054163;28;20075;-63
2021/12/25 05:12:11;;;;;;;3.95;3.00;;;16.30;50.70;;;;;;5036275;28;20051;-63
2021/12/25 05:14:38;;;;;;;4.30;3.67;;;16.30;50.60;;;;;;5054279;28;20041;-63
2021/12/25 05:17:06;;;;;;;5.03;3.30;;;16.30;50.60;;;;;;5054373;28;20021;-64
2021/12/25 05:19:32;;;;;;;4.20;3.60;;;16.30;50.70;;;;;;5054337;28;20092;-63
2021/12/25 05:21:58;;;;;;;4.05;3.17;;;16.30;50.60;;;;;;5054139;28;20067;-64
2021/12/25 05:24:24;;;;;;;3.92;3.45;;;16.30;50.60;;;;;;5054097;28;20025;-63
2021/12/25 05:26:56;;;;;;;5.72;3.35;;;16.30;50.60;;;;;;5054248;28;20107;-64
2021/12/25 05:29:24;;;;;;;4.55;3.88;;;16.30;50.60;;;;;;5055057;28;20025;-63
2021/12/25 05:31:52;;;;;;;3.50;3.10;;;16.20;50.60;;;;;;5054309;28;20016;-63
2021/12/25 05:34:18;;;;;;;4.72;3.28;;;16.30;50.70;;;;;;5054095;28;20020;-62
2021/12/25 05:36:43;;;;;;;3.40;3.08;;;16.30;50.70;;;;;;5052999;28;20055;-63
2021/12/25 05:39:12;;;;;;;3.97;3.50;;;16.20;50.70;;;;;;5053482;28;20051;-64
2021/12/25 05:41:38;;;;;;;4.45;3.70;;;16.20;50.60;;;;;;5053845;28;20613;-63
2021/12/25 05:44:04;;;;;;;3.20;2.90;;;16.20;50.70;;;;;;5053216;28;20041;-63
2021/12/25 05:46:31;;;;;;;3.55;3.15;;;16.20;50.70;;;;;;5053485;28;20100;-63
2021/12/25 05:48:58;;;;;;;3.45;3.15;;;16.20;50.70;;;;;;5053414;28;20029;-62
2021/12/25 05:51:25;;;;;;;4.25;3.15;;;16.20;50.70;;;;;;5053550;28;20018;-63
2021/12/25 05:53:51;;;;;;;3.85;3.45;;;16.20;50.70;;;;;;5053478;28;20013;-65
2021/12/25 05:56:17;;;;;;;5.85;3.40;;;16.20;50.70;;;;;;5053379;28;20486;-63
2021/12/25 05:58:43;;;;;;;3.83;3.25;;;16.20;50.70;;;;;;5053261;28;20028;-63
2021/12/25 06:01:11;;;;;;;3.60;3.30;;;16.20;50.70;;;;;;5053375;28;20017;-63
2021/12/25 06:03:40;;;;;;;3.90;3.55;;;16.20;50.70;;;;;;5053492;28;20017;-63
2021/12/25 06:06:07;;;;;;;3.63;3.30;;;16.20;50.70;;;;;;5053306;28;20013;-64
2021/12/25 06:08:33;;;;;;;3.22;2.92;;;16.20;50.70;;;;;;5035673;28;20024;-63
2021/12/25 06:11:02;;;;;;;3.22;2.92;;;16.20;50.80;;;;;;5053215;28;20017;-64
2021/12/25 06:13:28;;;;;;;3.30;3.00;;;16.20;51.30;;;;;;5035709;28;20025;-63
2021/12/25 06:15:53;;;;;;;3.63;3.08;;;16.20;50.70;;;;;;5053316;28;20020;-63
2021/12/25 06:18:20;;;;;;;3.55;2.83;;;16.20;50.80;;;;;;5053343;28;20033;-63
2021/12/25 06:20:46;;;;;;;3.08;2.78;;;16.20;50.80;;;;;;5053365;28;20021;-64
2021/12/25 06:23:11;;;;;;;2.63;2.42;;;16.20;50.80;;;;;;5053087;28;20028;-62
2021/12/25 06:25:38;;;;;;;5.18;3.30;;;16.20;50.80;;;;;;5053250;28;20021;-63
2021/12/25 06:28:03;;;;;;;3.40;3.10;;;16.20;50.80;;;;;;5034988;28;20063;-64
2021/12/25 06:30:29;;;;;;;3.42;3.00;;;16.20;50.80;;;;;;5052886;28;20459;-62
2021/12/25 06:32:55;;;;;;;3.45;2.92;;;16.20;50.80;;;;;;5052947;28;20376;-63
2021/12/25 06:35:22;;;;;;;3.13;2.75;;;16.20;50.80;;;;;;5053095;28;20009;-63
2021/12/25 06:37:48;;;;;;;3.28;2.97;;;16.10;50.70;;;;;;5052929;28;20049;-63
2021/12/25 06:40:17;;;;;;;3.53;3.08;;;16.10;50.80;;;;;;5053381;28;20372;-63
2021/12/25 06:42:43;;;;;;;3.33;3.03;;;16.20;50.80;;;;;;5053259;28;20035;-63
2021/12/25 06:45:10;;;;;;;3.38;3.08;;;16.10;50.70;;;;;;5052813;28;20021;-63
2021/12/25 06:47:36;;;;;;;4.28;3.00;;;16.10;50.70;;;;;;5054941;28;20027;-62
2021/12/25 06:50:03;;;;;;;3.33;3.03;;;16.10;50.80;;;;;;5057358;28;20057;-63
2021/12/25 06:52:29;;;;;;;3.28;2.97;;;16.20;50.80;;;;;;5057377;28;20013;-62
2021/12/25 06:54:55;;;;;;;4.63;3.58;;;16.10;50.80;;;;;;5039258;28;20010;-63
2021/12/25 06:57:21;;;;;;;3.45;3.15;;;16.10;50.80;;;;;;5056980;28;20104;-62
2021/12/25 06:59:47;;;;;;;3.03;2.58;;;16.10;50.80;;;;;;5057148;28;20025;-63
2021/12/25 07:02:14;;;;;;;5.60;2.80;;;16.10;50.80;;;;;;5056962;28;20021;-62
2021/12/25 07:04:40;;;;;;;3.00;2.55;;;16.10;50.80;;;;;;5057350;28;20098;-63
2021/12/25 07:07:06;;;;;;;3.10;2.75;;;16.10;50.80;;;;;;5057051;28;20032;-63
2021/12/25 07:09:31;;;;;;;3.40;3.08;;;16.10;50.80;;;;;;5056963;28;20033;-63
2021/12/25 07:11:57;;;;;;;3.03;2.72;;;16.10;50.80;;;;;;5056843;28;20055;-63
2021/12/25 07:14:23;;;;;;;2.80;2.53;;;16.10;50.80;;;;;;5056722;28;20387;-63
2021/12/25 07:16:49;;;;;;;3.05;2.75;;;16.10;50.90;;;;;;5039520;28;20033;-65
2021/12/25 07:19:16;;;;;;;3.20;2.90;;;16.10;50.80;;;;;;5039220;28;20403;-64
2021/12/25 07:21:42;;;;;;;3.22;2.90;;;16.10;50.80;;;;;;5057092;28;20093;-63
2021/12/25 07:24:09;;;;;;;2.80;2.53;;;16.10;50.90;;;;;;5056932;28;20025;-63
2021/12/25 07:26:36;;;;;;;3.08;2.72;;;16.10;50.90;;;;;;5056417;28;20020;-64
2021/12/25 07:29:02;;;;;;;3.65;2.80;;;16.10;50.90;;;;;;5056186;28;20384;-64
2021/12/25 07:31:29;;;;;;;3.13;2.83;;;16.10;50.90;;;;;;5056173;28;20045;-63
2021/12/25 07:33:54;;;;;;;3.00;2.72;;;16.10;50.90;;;;;;5056773;28;20017;-63
2021/12/25 07:36:21;;;;;;;2.85;2.60;;;16.10;50.90;;;;;;5035198;28;20057;-62
2021/12/25 07:38:46;;;;;;;2.50;2.30;;;16.10;50.90;;;;;;5035194;28;20087;-64
2021/12/25 07:41:13;;;;;;;3.40;2.55;;;16.10;50.90;;;;;;5034838;28;20486;-64
2021/12/25 07:43:39;;;;;;;3.10;2.80;;;16.00;50.90;;;;;;5034991;28;20022;-64
2021/12/25 07:46:05;;;;;;;3.30;3.00;;;16.00;50.90;;;;;;5036088;28;20010;-63
2021/12/25 07:48:33;;;;;;;3.08;2.63;;;16.00;50.90;;;;;;5034917;28;20017;-64
2021/12/25 07:50:58;;;;;;;2.67;2.45;;;16.00;50.90;;;;;;5035986;28;20095;-64
2021/12/25 07:53:24;;;;;;;2.75;2.42;;;16.00;50.90;;;;;;5036172;28;20093;-64
2021/12/25 07:55:51;;;;;;;3.03;2.45;;;16.00;50.90;;;;;;5036101;28;20022;-64
2021/12/25 07:58:17;;;;;;;2.85;2.47;;;16.00;50.90;;;;;;5035498;28;20041;-65
2021/12/25 08:00:43;;;;;;;2.67;2.47;;;16.00;50.90;;;;;;5034706;28;20053;-63
2021/12/25 08:03:09;;;;;;;3.03;2.72;;;16.00;50.90;;;;;;5035853;28;20021;-63
2021/12/25 08:05:35;;;;;;;2.50;2.30;;;16.00;50.70;;;;;;5034458;28;20017;-64
2021/12/25 08:08:01;;;;;;;3.45;2.70;;;16.20;50.50;;;;;;5035417;28;20025;-63
2021/12/25 08:10:27;;;;;;;2.53;2.33;;;16.30;50.30;;;;;;5035588;28;20025;-64
2021/12/25 08:12:54;;;;;;;2.65;2.45;;;16.40;50.10;;;;;;5036159;28;20029;-64
2021/12/25 08:15:23;;;;;;;2.88;2.40;;;16.40;49.90;;;;;;5035812;28;20021;-64
2021/12/25 08:17:49;;;;;;;2.63;2.38;;;16.50;49.80;;;;;;5036027;28;20088;-63
2021/12/25 08:20:15;;;;;;;2.60;2.40;;;16.50;49.60;;;;;;5035512;28;20018;-62
2021/12/25 08:22:41;;;;;;;2.58;2.38;;;16.60;49.50;;;;;;5034526;28;20029;-63
2021/12/25 08:25:07;;;;;;;2.45;2.25;;;16.70;49.30;;;;;;5034570;28;20080;-63
2021/12/25 08:27:33;;;;;;;2.60;2.40;;;16.80;49.10;;;;;;5034506;28;20021;-63
2021/12/25 08:29:59;;;;;;;2.20;2.00;;;16.80;48.90;;;;;;5035479;28;20041;-63
2021/12/25 08:32:26;;;;;;;2.88;2.30;;;16.90;48.80;;;;;;5035356;28;20036;-63
2021/12/25 08:34:51;;;;;;;2.70;2.50;;;17.00;48.50;;;;;;5035743;28;20494;-64
2021/12/25 08:37:21;;;;;;;2.55;2.35;;;17.10;48.30;;;;;;5049609;28;20049;-63
2021/12/25 08:39:48;;;;;;;2.72;2.40;;;17.20;48.20;;;;;;5055296;28;20029;-63
2021/12/25 08:42:14;;;;;;;2.42;2.22;;;17.30;48.00;;;;;;5055327;28;20013;-63
2021/12/25 08:44:53;;;;;;;2.28;2.08;;;17.30;47.90;;;;;;5055180;28;20401;-65
2021/12/25 08:47:19;;;;;;;2.20;2.00;;;17.40;47.80;;;;;;5055619;28;20025;-63
2021/12/25 08:49:45;;;;;;;2.17;1.98;;;17.40;47.60;;;;;;5055050;28;20410;-64
2021/12/25 08:52:12;;;;;;;2.60;2.33;;;17.40;47.60;;;;;;5037015;28;20024;-63
2021/12/25 08:54:39;;;;;;;2.17;1.90;;;17.50;47.40;;;;;;5055316;28;20036;-63
2021/12/25 08:57:05;;;;;;;2.38;2.00;;;17.50;47.30;;;;;;5055434;28;20399;-64
2021/12/25 08:59:33;;;;;;;2.38;2.17;;;17.60;47.30;;;;;;5055971;28;20021;-64
2021/12/25 09:01:59;;;;;;;2.22;2.03;;;17.60;47.30;;;;;;5056348;28;20028;-64
2021/12/25 09:04:25;;;;;;;2.13;1.92;;;17.60;47.00;;;;;;5056544;28;20021;-64
2021/12/25 09:06:51;;;;;;;2.42;1.90;;;17.70;46.90;;;;;;5056302;28;20094;-64
2021/12/25 09:09:18;;;;;;;2.20;2.00;;;17.70;47.00;;;;;;5056455;28;20480;-62
2021/12/25 09:11:45;;;;;;;1.75;1.65;;;17.70;47.10;;;;;;5055603;28;20013;-64
2021/12/25 09:14:10;;;;;;;1.83;1.73;;;17.70;47.00;;;;;;5055404;28;20013;-64
2021/12/25 09:16:36;;;;;;;2.17;1.88;;;17.70;47.00;;;;;;5055737;28;20024;-64
2021/12/25 09:19:02;;;;;;;2.17;1.98;;;17.70;47.00;;;;;;5055869;28;20044;-63
2021/12/25 09:21:28;;;;;;;2.42;2.13;;;17.70;47.00;;;;;;5054979;28;20481;-64
2021/12/25 09:23:54;;;;;;;2.70;2.10;;;17.70;47.00;;;;;;5054845;28;20024;-64
2021/12/25 09:26:19;;;;;;;2.47;1.80;;;17.70;47.00;;;;;;5054750;28;20452;-64
2021/12/25 09:28:45;;;;;;;2.20;2.00;;;17.70;46.90;;;;;;5055517;28;20017;-63
2021/12/25 09:31:12;;;;;;;2.00;1.80;;;17.70;46.90;;;;;;5055988;28;20009;-64
2021/12/25 09:33:38;;;;;;;2.10;1.75;;;17.80;46.80;;;;;;5055616;28;20071;-64
2021/12/25 09:36:05;;;;;;;2.83;2.15;;;17.80;46.80;;;;;;5055610;28;20483;-63
2021/12/25 09:38:31;;;;;;;2.00;1.80;;;17.80;46.80;;;;;;5037444;28;20104;-63
2021/12/25 09:40:57;;;;;;;1.88;1.63;;;17.80;46.70;;;;;;5054970;28;20051;-62
2021/12/25 09:43:24;;;;;;;1.80;1.70;;;17.90;46.70;;;;;;5055034;28;20017;-63
2021/12/25 09:45:50;;;;;;;1.77;1.67;;;17.90;46.70;;;;;;5055027;28;20020;-63
2021/12/25 09:48:16;;;;;;;1.85;1.73;;;17.90;46.60;;;;;;5055206;28;20021;-63
2021/12/25 09:50:42;;;;;;;2.10;1.90;;;17.90;46.50;;;;;;5054822;28;20486;-63
2021/12/25 09:53:09;;;;;;;2.10;1.83;;;17.90;46.50;;;;;;5054789;28;20098;-63
2021/12/25 09:55:35;;;;;;;1.60;1.50;;;18.00;46.40;;;;;;5054669;28;20009;-62
2021/12/25 09:58:03;;;;;;;2.05;1.80;;;18.00;46.50;;;;;;5054899;28;20071;-61
2021/12/25 10:00:30;;;;;;;3.08;1.90;;;18.00;46.50;;;;;;5054534;28;20036;-61
2021/12/25 10:02:56;;;;;;;2.00;1.80;;;18.00;46.40;;;;;;5054738;28;20025;-62
2021/12/25 10:05:43;;;;;;;1.80;1.70;;;18.00;46.40;;;;;;5054510;28;20014;-62
2021/12/25 10:08:12;;;;;;;1.80;1.70;;;18.10;46.30;;;;;;5037049;28;20032;-62
2021/12/25 10:10:44;;;;;;;2.22;2.03;;;18.10;46.20;;;;;;5037113;28;20025;-62
2021/12/25 10:13:28;;;;;;;1.73;1.63;;;18.10;46.20;;;;;;5054232;28;20017;-60
2021/12/25 10:15:57;;;;;;;2.30;2.00;;;18.10;46.20;;;;;;5053563;28;20495;-61
2021/12/25 10:18:36;;;;;;;1.75;1.60;;;18.10;46.20;;;;;;5053583;28;20020;-61
2021/12/25 10:21:27;;;;;;;2.03;1.75;;;18.10;46.20;;;;;;5053478;28;20096;-60
2021/12/25 10:24:06;;;;;;;1.60;1.50;;;18.20;46.20;;;;;;5054002;28;20021;-61
2021/12/25 10:26:34;;;;;;;1.83;1.67;;;18.20;46.10;;;;;;5054283;28;20502;-61
2021/12/25 10:29:13;;;;;;;2.00;1.80;;;18.20;46.00;;;;;;5054673;28;20028;-61
2021/12/25 10:31:39;;;;;;;1.50;1.40;;;18.20;46.10;;;;;;5036653;28;20013;-62
2021/12/25 10:34:13;;;;;;;1.77;1.55;;;18.20;46.00;;;;;;5036594;28;20079;-60
2021/12/25 10:36:39;;;;;;;2.05;1.85;;;18.20;46.00;;;;;;5054942;28;20045;-59
2021/12/25 10:39:08;;;;;;;1.90;1.23;;;18.20;46.00;;;;;;5054755;28;20021;-59
2021/12/25 10:41:38;;;;;;;1.88;1.60;;;18.30;46.00;;;;;;5054061;28;20052;-59
2021/12/25 10:44:19;;;;;;;1.83;1.67;;;18.30;46.00;;;;;;5053677;28;20021;-61
2021/12/25 10:46:52;;;;;;;2.20;1.60;;;18.30;45.90;;;;;;5053445;28;20024;-60
2021/12/25 10:49:18;;;;;;;1.83;1.65;;;18.30;45.80;;;;;;5053314;28;20055;-59
2021/12/25 10:51:44;;;;;;;1.50;1.40;;;18.30;45.80;;;;;;5053287;28;20017;-60
2021/12/25 10:54:13;;;;;;;1.58;1.45;;;18.30;45.90;;;;;;5052999;28;20028;-60
2021/12/25 10:56:39;;;;;;;3.17;1.67;;;18.30;45.80;;;;;;5053242;28;20020;-59
2021/12/25 10:59:09;;;;;;;1.38;1.27;;;18.30;45.80;;;;;;5053120;28;20025;-59
2021/12/25 11:01:42;;;;;;;1.58;1.48;;;18.40;45.80;;;;;;5053631;28;20019;-58
2021/12/25 11:04:30;;;;;;;1.77;1.58;;;18.30;45.70;;;;;;5053237;28;20021;-59
2021/12/25 11:06:56;;;;;;;1.65;1.50;;;18.40;45.80;;;;;;5053325;28;20475;-58
2021/12/25 11:09:22;;;;;;;1.65;1.55;;;18.40;45.80;;;;;;5053658;28;20025;-60
2021/12/25 11:12:15;;;;;;;1.88;1.52;;;18.40;45.70;;;;;;5053404;28;20100;-59
2021/12/25 11:14:41;;;;;;;1.50;1.40;;;18.40;45.70;;;;;;5053296;28;20079;-60
2021/12/25 11:17:24;;;;;;;1.38;1.27;;;18.40;45.70;;;;;;5053272;28;20028;-59
2021/12/25 11:20:00;;;;;;;1.48;1.30;;;18.40;45.70;;;;;;5052986;28;20043;-58
2021/12/25 11:22:48;;;;;;;1.40;1.30;;;18.40;45.80;;;;;;5053040;28;20059;-59
2021/12/25 11:25:14;;;;;;;1.38;1.27;;;18.40;45.80;;;;;;5035796;28;20487;-58
2021/12/25 11:27:40;;;;;;;1.73;1.60;;;18.30;45.80;;;;;;5053514;28;20021;-59
2021/12/25 11:30:07;;;;;;;1.73;1.63;;;18.30;45.90;;;;;;5053422;28;20378;-58
2021/12/25 11:32:33;;;;;;;2.20;1.70;;;18.30;45.90;;;;;;5053644;28;20021;-58
2021/12/25 11:34:58;;;;;;;1.30;1.20;;;18.30;46.00;;;;;;5055752;28;20037;-59
2021/12/25 11:37:25;;;;;;;1.70;1.58;;;18.30;46.10;;;;;;5057287;28;20116;-58
2021/12/25 11:39:53;;;;;;;2.22;1.48;;;18.20;46.10;;;;;;5056867;28;20085;-59
2021/12/25 11:42:19;;;;;;;1.83;1.65;;;18.20;46.20;;;;;;5039494;28;20504;-58
2021/12/25 11:44:49;;;;;;;1.30;1.20;;;18.20;46.30;;;;;;5056629;28;20029;-59
2021/12/25 11:47:37;;;;;;;1.70;1.58;;;18.10;46.30;;;;;;5056868;28;20013;-59
2021/12/25 11:50:09;;;;;;;1.30;1.20;;;18.10;46.40;;;;;;5056866;28;20021;-59
2021/12/25 11:52:44;;;;;;;1.60;1.30;;;18.10;46.40;;;;;;5057068;28;20375;-59
2021/12/25 12:00:46;;;;;;;1.85;1.30;;;18.00;46.50;;;;;;5022739;28;20025;-57
2021/12/25 12:03:46;;;;;;;2.80;1.30;;;18.00;46.60;;;;;;5055819;28;20017;-58
2021/12/25 12:06:15;;;;;;;1.50;1.40;;;17.90;46.70;;;;;;5049649;28;20025;-59
2021/12/25 12:08:54;;;;;;;1.40;1.30;;;17.90;46.80;;;;;;5056126;28;20021;-59
2021/12/25 12:11:24;;;;;;;1.50;1.40;;;17.90;46.90;;;;;;5055755;28;20029;-59
2021/12/25 12:14:21;;;;;;;1.75;1.50;;;17.80;46.80;;;;;;5055378;28;20019;-58
2021/12/25 12:16:50;;;;;;;2.13;1.38;;;17.80;47.00;;;;;;5055560;28;20021;-58
2021/12/25 12:19:41;;;;;;;1.45;1.27;;;17.80;47.10;;;;;;5055990;28;20017;-58
2021/12/25 12:22:20;;;;;;;1.50;1.30;;;17.70;47.00;;;;;;5055203;28;20021;-57
2021/12/25 12:25:12;;;;;;;1.98;1.50;;;17.70;47.20;;;;;;5055439;28;20078;-58
2021/12/25 12:27:48;;;;;;;1.42;1.13;;;17.70;47.30;;;;;;5040562;28;20028;-58
2021/12/25 12:30:34;;;;;;;1.50;1.40;;;17.60;47.20;;;;;;5054823;28;20479;-57
2021/12/25 12:33:14;;;;;;;1.45;1.25;;;17.60;47.30;;;;;;5054803;28;20102;-58
2021/12/25 12:35:41;;;;;;;1.63;1.50;;;17.60;47.50;;;;;;5054754;28;20021;-58
2021/12/25 12:38:26;;;;;;;1.52;1.40;;;17.60;47.50;;;;;;5054959;28;20104;-59
2021/12/25 12:41:20;;;;;;;1.30;1.20;;;17.50;47.60;;;;;;5054967;28;20025;-58
2021/12/25 12:44:16;;;;;;;1.40;1.25;;;17.50;47.60;;;;;;5055700;28;20017;-59
2021/12/25 12:46:48;;;;;;;1.65;1.20;;;17.50;47.60;;;;;;5038018;28;20024;-58
2021/12/25 12:49:16;;;;;;;1.40;1.30;;;17.50;47.60;;;;;;5055194;28;20092;-58
2021/12/25 12:51:42;;;;;;;1.40;1.30;;;17.50;47.60;;;;;;5055085;28;20020;-58
2021/12/25 12:54:07;;;;;;;2.70;1.60;;;17.40;47.60;;;;;;5037136;28;20013;-57
2021/12/25 12:56:57;;;;;;;1.35;1.25;;;17.40;47.60;;;;;;5055201;28;20048;-59
2021/12/25 12:59:24;;;;;;;1.30;1.20;;;17.40;47.70;;;;;;5054641;28;20017;-59
2021/12/25 13:01:50;;;;;;;2.85;1.73;;;17.40;47.70;;;;;;5036579;28;20013;-58
2021/12/25 13:04:17;;;;;;;1.50;1.40;;;17.40;47.70;;;;;;5054691;28;20079;-58
2021/12/25 13:06:44;;;;;;;2.05;1.33;;;17.40;47.80;;;;;;5036578;28;20025;-59
2021/12/25 13:09:09;;;;;;;1.48;1.33;;;17.30;47.90;;;;;;5020260;28;20043;-58
2021/12/25 13:11:52;;;;;;;1.50;1.30;;;17.30;47.90;;;;;;5036683;28;20025;-59
2021/12/25 13:14:18;;;;;;;1.50;1.40;;;17.30;48.00;;;;;;5054553;28;20021;-58
2021/12/25 13:16:44;;;;;;;1.85;1.50;;;17.30;48.00;;;;;;5036499;28;20017;-58
2021/12/25 13:19:10;;;;;;;1.92;1.40;;;17.20;48.10;;;;;;5054339;28;20028;-59
2021/12/25 13:21:37;;;;;;;1.50;1.40;;;17.20;48.20;;;;;;5053959;28;20075;-58
2021/12/25 13:24:11;;;;;;;1.83;1.50;;;17.20;48.20;;;;;;5053852;28;20573;-58
2021/12/25 13:26:40;;;;;;;1.70;1.60;;;17.10;48.30;;;;;;5054198;28;20009;-58
2021/12/25 13:29:17;;;;;;;1.60;1.50;;;17.10;48.40;;;;;;5053857;28;20086;-59
2021/12/25 13:31:44;;;;;;;1.50;1.27;;;17.10;48.40;;;;;;5054226;28;20088;-58
2021/12/25 13:34:13;;;;;;;1.60;1.50;;;17.00;48.30;;;;;;5053906;28;20025;-59
2021/12/25 13:36:40;;;;;;;1.50;1.40;;;17.00;48.40;;;;;;5053788;28;20048;-59
2021/12/25 13:39:14;;;;;;;1.50;1.40;;;17.00;48.50;;;;;;5054099;28;20418;-58
2021/12/25 13:41:53;;;;;;;1.27;1.17;;;17.00;48.60;;;;;;5054022;28;20111;-58
2021/12/25 13:44:20;;;;;;;1.17;1.08;;;16.90;48.50;;;;;;5054387;28;20021;-59
2021/12/25 13:46:53;;;;;;;1.83;1.60;;;16.90;48.50;;;;;;5036146;28;20480;-59
2021/12/25 13:49:24;;;;;;;1.60;1.50;;;16.90;48.60;;;;;;5053422;28;20035;-58
2021/12/25 13:51:51;;;;;;;1.40;1.30;;;16.80;48.70;;;;;;5053603;28;20013;-59
2021/12/25 13:54:18;;;;;;;1.40;1.30;;;16.80;48.80;;;;;;5053368;28;20484;-59
2021/12/25 13:56:48;;;;;;;2.08;1.70;;;16.80;48.80;;;;;;5052779;28;20468;-59
2021/12/25 13:59:14;;;;;;;1.73;1.63;;;16.70;48.80;;;;;;5053497;28;20017;-58
2021/12/25 14:01:40;;;;;;;1.60;1.50;;;16.80;48.90;;;;;;5053501;28;20032;-59
2021/12/25 14:04:10;;;;;;;1.50;1.40;;;16.80;49.00;;;;;;5053494;28;20092;-59
2021/12/25 14:06:37;;;;;;;1.80;1.50;;;16.70;49.00;;;;;;5053482;28;20013;-58
2021/12/25 14:09:04;;;;;;;1.67;1.58;;;16.70;49.10;;;;;;5053503;28;20023;-58
2021/12/25 14:11:30;;;;;;;1.58;1.48;;;16.70;49.10;;;;;;5053382;28;20013;-58
2021/12/25 14:13:56;;;;;;;1.58;1.48;;;16.70;49.10;;;;;;5035886;28;20538;-59
2021/12/25 14:16:23;;;;;;;1.60;1.40;;;16.70;49.10;;;;;;5053168;28;20017;-58